Connorsville, Ohio
Current Conditions -  °F | °C
As of 9:53 PM on Monday 26 Jan 2015 (Local Time) from KHLG Reporting Station
Overcast Overcast  
Wind Chill: 11°   Ceiling: 1200
Heat Index: 22°   Visibility: 10mi
Dew Point: 17°   Wind: 10mph
Humidity: 82%   Direction: 320°NW
Pressure: 29.85"   Gusts: NA
Location:  40.2229°N, 80.7179°W
Report Text: KHLG 270253Z 32009KT 10SM OVC012 M06/M08 A2985 RMK AO2 SLP126 T10561083 51011
Loading
Personal Weather Stations






























Interactive Weather Map New forecast layout! Learn more

10-Day Weather Forecast

Advertisements
Track Severe Weather on mobile